sensor_id;sensor_type;location;lat;lon;timestamp;temperature;humidity
32322;DHT22;61553;48.994;8.940;2023-11-22T00:00:54;6.10;99.90
32322;DHT22;61553;48.994;8.940;2023-11-22T00:03:20;6.10;99.90
32322;DHT22;61553;48.994;8.940;2023-11-22T00:05:46;6.00;99.90
32322;DHT22;61553;48.994;8.940;2023-11-22T00:08:12;5.90;99.90
32322;DHT22;61553;48.994;8.940;2023-11-22T00:10:38;5.90;99.90
32322;DHT22;61553;48.994;8.940;2023-11-22T00:13:04;5.80;99.90
32322;DHT22;61553;48.994;8.940;2023-11-22T00:15:30;5.80;99.90
32322;DHT22;61553;48.994;8.940;2023-11-22T00:17:56;5.80;99.90
32322;DHT22;61553;48.994;8.940;2023-11-22T00:20:23;5.70;99.90
32322;DHT22;61553;48.994;8.940;2023-11-22T00:22:48;5.60;99.90
32322;DHT22;61553;48.994;8.940;2023-11-22T00:25:15;5.60;99.90
32322;DHT22;61553;48.994;8.940;2023-11-22T00:27:41;5.60;99.90
32322;DHT22;61553;48.994;8.940;2023-11-22T00:30:07;5.50;99.90
32322;DHT22;61553;48.994;8.940;2023-11-22T00:32:33;5.50;99.90
32322;DHT22;61553;48.994;8.940;2023-11-22T00:34:59;5.50;99.90
32322;DHT22;61553;48.994;8.940;2023-11-22T00:37:24;5.50;99.90
32322;DHT22;61553;48.994;8.940;2023-11-22T00:39:50;5.50;99.90
32322;DHT22;61553;48.994;8.940;2023-11-22T00:42:16;5.50;99.90
32322;DHT22;61553;48.994;8.940;2023-11-22T00:44:45;5.50;99.90
32322;DHT22;61553;48.994;8.940;2023-11-22T00:47:11;5.50;99.90
32322;DHT22;61553;48.994;8.940;2023-11-22T00:49:37;5.50;99.90
32322;DHT22;61553;48.994;8.940;2023-11-22T00:52:02;5.40;99.90
32322;DHT22;61553;48.994;8.940;2023-11-22T00:54:28;5.50;99.90
32322;DHT22;61553;48.994;8.940;2023-11-22T00:56:55;5.50;99.90
32322;DHT22;61553;48.994;8.940;2023-11-22T00:59:20;5.50;99.90
32322;DHT22;61553;48.994;8.940;2023-11-22T01:01:46;5.40;99.90
32322;DHT22;61553;48.994;8.940;2023-11-22T01:04:11;5.40;99.90
32322;DHT22;61553;48.994;8.940;2023-11-22T01:06:37;5.40;99.90
32322;DHT22;61553;48.994;8.940;2023-11-22T01:09:03;5.40;99.90
32322;DHT22;61553;48.994;8.940;2023-11-22T01:11:29;5.40;99.90
32322;DHT22;61553;48.994;8.940;2023-11-22T01:13:55;5.40;99.90
32322;DHT22;61553;48.994;8.940;2023-11-22T01:16:20;5.40;99.90
32322;DHT22;61553;48.994;8.940;2023-11-22T01:18:46;5.50;99.90
32322;DHT22;61553;48.994;8.940;2023-11-22T01:21:12;5.40;99.90
32322;DHT22;61553;48.994;8.940;2023-11-22T01:23:38;5.50;99.90
32322;DHT22;61553;48.994;8.940;2023-11-22T01:26:03;5.40;99.90
32322;DHT22;61553;48.994;8.940;2023-11-22T01:28:31;5.50;99.90
32322;DHT22;61553;48.994;8.940;2023-11-22T01:31:00;5.50;99.90
32322;DHT22;61553;48.994;8.940;2023-11-22T01:33:27;5.50;99.90
32322;DHT22;61553;48.994;8.940;2023-11-22T01:35:53;5.50;99.90
32322;DHT22;61553;48.994;8.940;2023-11-22T01:38:19;5.50;99.90
32322;DHT22;61553;48.994;8.940;2023-11-22T01:40:45;5.50;99.90
32322;DHT22;61553;48.994;8.940;2023-11-22T01:43:18;5.40;99.90
32322;DHT22;61553;48.994;8.940;2023-11-22T01:45:44;5.40;99.90
32322;DHT22;61553;48.994;8.940;2023-11-22T01:48:11;5.40;99.90
32322;DHT22;61553;48.994;8.940;2023-11-22T01:50:38;5.50;99.90
32322;DHT22;61553;48.994;8.940;2023-11-22T01:53:06;5.30;99.90
32322;DHT22;61553;48.994;8.940;2023-11-22T01:55:32;5.30;99.90
32322;DHT22;61553;48.994;8.940;2023-11-22T01:57:58;5.20;99.90
32322;DHT22;61553;48.994;8.940;2023-11-22T02:00:26;5.20;99.90
32322;DHT22;61553;48.994;8.940;2023-11-22T02:02:56;5.20;99.90
32322;DHT22;61553;48.994;8.940;2023-11-22T02:05:21;5.30;99.90
32322;DHT22;61553;48.994;8.940;2023-11-22T02:07:47;5.40;99.90
32322;DHT22;61553;48.994;8.940;2023-11-22T02:10:13;5.30;99.90
32322;DHT22;61553;48.994;8.940;2023-11-22T02:12:38;5.30;99.90
32322;DHT22;61553;48.994;8.940;2023-11-22T02:15:04;5.30;99.90
32322;DHT22;61553;48.994;8.940;2023-11-22T02:17:30;5.20;99.90
32322;DHT22;61553;48.994;8.940;2023-11-22T02:19:56;5.30;99.90
32322;DHT22;61553;48.994;8.940;2023-11-22T02:22:21;5.20;99.90
32322;DHT22;61553;48.994;8.940;2023-11-22T02:24:47;5.00;99.90
32322;DHT22;61553;48.994;8.940;2023-11-22T02:27:13;4.90;99.90
32322;DHT22;61553;48.994;8.940;2023-11-22T02:29:38;4.70;99.90
32322;DHT22;61553;48.994;8.940;2023-11-22T02:32:05;4.70;99.90
32322;DHT22;61553;48.994;8.940;2023-11-22T02:34:31;4.70;99.90
32322;DHT22;61553;48.994;8.940;2023-11-22T02:36:57;4.70;99.90
32322;DHT22;61553;48.994;8.940;2023-11-22T02:39:28;4.60;99.90
32322;DHT22;61553;48.994;8.940;2023-11-22T02:41:55;4.60;99.90
32322;DHT22;61553;48.994;8.940;2023-11-22T02:44:20;4.50;99.90
32322;DHT22;61553;48.994;8.940;2023-11-22T02:46:46;4.40;99.90
32322;DHT22;61553;48.994;8.940;2023-11-22T02:49:12;4.40;99.90
32322;DHT22;61553;48.994;8.940;2023-11-22T02:51:38;4.40;99.90
32322;DHT22;61553;48.994;8.940;2023-11-22T02:54:03;4.40;99.90
32322;DHT22;61553;48.994;8.940;2023-11-22T02:56:31;4.30;99.90
32322;DHT22;61553;48.994;8.940;2023-11-22T02:58:56;4.40;99.90
32322;DHT22;61553;48.994;8.940;2023-11-22T03:01:22;4.40;99.90
32322;DHT22;61553;48.994;8.940;2023-11-22T03:03:47;4.40;99.90
32322;DHT22;61553;48.994;8.940;2023-11-22T03:06:18;4.40;99.90
32322;DHT22;61553;48.994;8.940;2023-11-22T03:08:44;4.40;99.90
32322;DHT22;61553;48.994;8.940;2023-11-22T03:11:10;4.40;99.90
32322;DHT22;61553;48.994;8.940;2023-11-22T03:13:36;4.40;99.90
32322;DHT22;61553;48.994;8.940;2023-11-22T03:16:02;4.30;99.90
32322;DHT22;61553;48.994;8.940;2023-11-22T03:18:29;4.30;99.90
32322;DHT22;61553;48.994;8.940;2023-11-22T03:20:54;4.30;99.90
32322;DHT22;61553;48.994;8.940;2023-11-22T03:23:20;4.30;99.90
32322;DHT22;61553;48.994;8.940;2023-11-22T03:25:46;4.20;99.90
32322;DHT22;61553;48.994;8.940;2023-11-22T03:28:12;4.20;99.90
32322;DHT22;61553;48.994;8.940;2023-11-22T03:30:38;4.10;99.90
32322;DHT22;61553;48.994;8.940;2023-11-22T03:33:04;4.10;99.90
32322;DHT22;61553;48.994;8.940;2023-11-22T03:35:30;4.20;99.90
32322;DHT22;61553;48.994;8.940;2023-11-22T03:37:56;4.00;99.90
32322;DHT22;61553;48.994;8.940;2023-11-22T03:40:22;3.90;99.90
32322;DHT22;61553;48.994;8.940;2023-11-22T03:42:48;3.80;99.90
32322;DHT22;61553;48.994;8.940;2023-11-22T03:45:13;3.70;99.90
32322;DHT22;61553;48.994;8.940;2023-11-22T03:47:39;3.60;99.90
32322;DHT22;61553;48.994;8.940;2023-11-22T03:50:06;3.50;99.90
32322;DHT22;61553;48.994;8.940;2023-11-22T03:52:32;3.40;99.90
32322;DHT22;61553;48.994;8.940;2023-11-22T03:54:57;3.30;99.90
32322;DHT22;61553;48.994;8.940;2023-11-22T03:57:23;3.30;99.90
32322;DHT22;61553;48.994;8.940;2023-11-22T03:59:49;3.20;99.90
32322;DHT22;61553;48.994;8.940;2023-11-22T04:02:14;3.20;99.90
32322;DHT22;61553;48.994;8.940;2023-11-22T04:04:40;3.30;99.90
32322;DHT22;61553;48.994;8.940;2023-11-22T04:07:07;3.00;99.90
32322;DHT22;61553;48.994;8.940;2023-11-22T04:09:33;2.90;99.90
32322;DHT22;61553;48.994;8.940;2023-11-22T04:11:59;2.80;99.90
32322;DHT22;61553;48.994;8.940;2023-11-22T04:14:24;2.90;99.90
32322;DHT22;61553;48.994;8.940;2023-11-22T04:16:52;2.80;99.90
32322;DHT22;61553;48.994;8.940;2023-11-22T04:19:18;2.80;99.90
32322;DHT22;61553;48.994;8.940;2023-11-22T04:21:44;2.80;99.90
32322;DHT22;61553;48.994;8.940;2023-11-22T04:24:09;2.80;99.90
32322;DHT22;61553;48.994;8.940;2023-11-22T04:26:37;2.80;99.90
32322;DHT22;61553;48.994;8.940;2023-11-22T04:29:03;2.90;99.90
32322;DHT22;61553;48.994;8.940;2023-11-22T04:31:30;2.90;99.90
32322;DHT22;61553;48.994;8.940;2023-11-22T04:33:56;3.00;99.90
32322;DHT22;61553;48.994;8.940;2023-11-22T04:36:23;3.00;99.90
32322;DHT22;61553;48.994;8.940;2023-11-22T04:38:49;3.10;99.90
32322;DHT22;61553;48.994;8.940;2023-11-22T04:41:15;3.20;99.90
32322;DHT22;61553;48.994;8.940;2023-11-22T04:43:41;3.20;99.90
32322;DHT22;61553;48.994;8.940;2023-11-22T04:46:07;3.40;99.90
32322;DHT22;61553;48.994;8.940;2023-11-22T04:48:34;3.40;99.90
32322;DHT22;61553;48.994;8.940;2023-11-22T04:50:59;3.40;99.90
32322;DHT22;61553;48.994;8.940;2023-11-22T04:53:25;3.50;99.90
32322;DHT22;61553;48.994;8.940;2023-11-22T04:55:50;3.40;99.90
32322;DHT22;61553;48.994;8.940;2023-11-22T04:58:16;3.60;99.90
32322;DHT22;61553;48.994;8.940;2023-11-22T05:00:41;3.40;99.90
32322;DHT22;61553;48.994;8.940;2023-11-22T05:03:07;3.40;99.90
32322;DHT22;61553;48.994;8.940;2023-11-22T05:05:33;3.50;99.90
32322;DHT22;61553;48.994;8.940;2023-11-22T05:07:58;3.50;99.90
32322;DHT22;61553;48.994;8.940;2023-11-22T05:10:24;3.70;99.90
32322;DHT22;61553;48.994;8.940;2023-11-22T05:12:50;3.60;99.90
32322;DHT22;61553;48.994;8.940;2023-11-22T05:15:15;3.50;99.90
32322;DHT22;61553;48.994;8.940;2023-11-22T05:17:41;3.60;99.90
32322;DHT22;61553;48.994;8.940;2023-11-22T05:20:07;3.60;99.90
32322;DHT22;61553;48.994;8.940;2023-11-22T05:22:35;3.70;99.90
32322;DHT22;61553;48.994;8.940;2023-11-22T05:25:01;3.60;99.90
32322;DHT22;61553;48.994;8.940;2023-11-22T05:27:27;3.70;99.90
32322;DHT22;61553;48.994;8.940;2023-11-22T05:29:53;3.70;99.90
32322;DHT22;61553;48.994;8.940;2023-11-22T05:32:19;3.80;99.90
32322;DHT22;61553;48.994;8.940;2023-11-22T05:34:48;3.70;99.90
32322;DHT22;61553;48.994;8.940;2023-11-22T05:37:14;3.70;99.90
32322;DHT22;61553;48.994;8.940;2023-11-22T05:39:39;3.70;99.90
32322;DHT22;61553;48.994;8.940;2023-11-22T05:42:05;3.80;99.90
32322;DHT22;61553;48.994;8.940;2023-11-22T05:44:32;3.70;99.90
32322;DHT22;61553;48.994;8.940;2023-11-22T05:46:57;3.80;99.90
32322;DHT22;61553;48.994;8.940;2023-11-22T05:49:23;3.70;99.90
32322;DHT22;61553;48.994;8.940;2023-11-22T05:51:49;3.70;99.90
32322;DHT22;61553;48.994;8.940;2023-11-22T05:54:14;3.80;99.90
32322;DHT22;61553;48.994;8.940;2023-11-22T05:56:42;3.60;99.90
32322;DHT22;61553;48.994;8.940;2023-11-22T05:59:07;3.70;99.90
32322;DHT22;61553;48.994;8.940;2023-11-22T06:01:34;3.80;99.90
32322;DHT22;61553;48.994;8.940;2023-11-22T06:03:59;3.70;99.90
32322;DHT22;61553;48.994;8.940;2023-11-22T06:06:25;3.80;99.90
32322;DHT22;61553;48.994;8.940;2023-11-22T06:08:50;3.70;99.90
32322;DHT22;61553;48.994;8.940;2023-11-22T06:11:16;3.90;99.90
32322;DHT22;61553;48.994;8.940;2023-11-22T06:13:42;3.70;99.90
32322;DHT22;61553;48.994;8.940;2023-11-22T06:16:12;3.60;99.90
32322;DHT22;61553;48.994;8.940;2023-11-22T06:18:38;3.50;99.90
32322;DHT22;61553;48.994;8.940;2023-11-22T06:21:09;3.40;99.90
32322;DHT22;61553;48.994;8.940;2023-11-22T06:23:35;3.40;99.90
32322;DHT22;61553;48.994;8.940;2023-11-22T06:26:01;3.40;99.90
32322;DHT22;61553;48.994;8.940;2023-11-22T06:28:27;3.30;99.90
32322;DHT22;61553;48.994;8.940;2023-11-22T06:30:52;3.30;99.90
32322;DHT22;61553;48.994;8.940;2023-11-22T06:33:18;3.40;99.90
32322;DHT22;61553;48.994;8.940;2023-11-22T06:35:44;3.30;99.90
32322;DHT22;61553;48.994;8.940;2023-11-22T06:38:10;3.30;99.90
32322;DHT22;61553;48.994;8.940;2023-11-22T06:40:35;3.30;99.90
32322;DHT22;61553;48.994;8.940;2023-11-22T06:43:01;3.50;99.90
32322;DHT22;61553;48.994;8.940;2023-11-22T06:45:29;3.10;99.90
32322;DHT22;61553;48.994;8.940;2023-11-22T06:47:56;3.10;99.90
32322;DHT22;61553;48.994;8.940;2023-11-22T06:50:22;3.00;99.90
32322;DHT22;61553;48.994;8.940;2023-11-22T06:52:47;3.00;99.90
32322;DHT22;61553;48.994;8.940;2023-11-22T06:55:15;3.00;99.90
32322;DHT22;61553;48.994;8.940;2023-11-22T06:57:41;3.00;99.90
32322;DHT22;61553;48.994;8.940;2023-11-22T07:00:07;2.90;99.90
32322;DHT22;61553;48.994;8.940;2023-11-22T07:02:35;2.90;99.90
32322;DHT22;61553;48.994;8.940;2023-11-22T07:05:01;2.90;99.90
32322;DHT22;61553;48.994;8.940;2023-11-22T07:07:29;2.90;99.90
32322;DHT22;61553;48.994;8.940;2023-11-22T07:09:55;2.90;99.90
32322;DHT22;61553;48.994;8.940;2023-11-22T07:12:27;2.80;99.90
32322;DHT22;61553;48.994;8.940;2023-11-22T07:14:53;2.70;99.90
32322;DHT22;61553;48.994;8.940;2023-11-22T07:17:18;2.70;99.90
32322;DHT22;61553;48.994;8.940;2023-11-22T07:19:44;2.70;99.90
32322;DHT22;61553;48.994;8.940;2023-11-22T07:22:14;2.70;99.90
32322;DHT22;61553;48.994;8.940;2023-11-22T07:24:45;2.70;99.90
32322;DHT22;61553;48.994;8.940;2023-11-22T07:27:13;2.90;99.90
32322;DHT22;61553;48.994;8.940;2023-11-22T07:29:43;2.70;99.90
32322;DHT22;61553;48.994;8.940;2023-11-22T07:32:09;2.90;99.90
32322;DHT22;61553;48.994;8.940;2023-11-22T07:34:36;2.80;99.90
32322;DHT22;61553;48.994;8.940;2023-11-22T07:37:02;2.60;99.90
32322;DHT22;61553;48.994;8.940;2023-11-22T07:42:49;2.60;99.90
32322;DHT22;61553;48.994;8.940;2023-11-22T07:45:15;2.50;99.90
32322;DHT22;61553;48.994;8.940;2023-11-22T07:47:42;2.50;99.90
32322;DHT22;61553;48.994;8.940;2023-11-22T07:50:09;2.60;99.90
32322;DHT22;61553;48.994;8.940;2023-11-22T07:52:36;2.60;99.90
32322;DHT22;61553;48.994;8.940;2023-11-22T07:55:04;2.60;99.90
32322;DHT22;61553;48.994;8.940;2023-11-22T07:57:39;2.60;99.90
32322;DHT22;61553;48.994;8.940;2023-11-22T08:00:05;2.60;99.90
32322;DHT22;61553;48.994;8.940;2023-11-22T08:02:36;2.60;99.90
32322;DHT22;61553;48.994;8.940;2023-11-22T08:05:04;2.80;99.90
32322;DHT22;61553;48.994;8.940;2023-11-22T08:07:36;2.80;99.90
32322;DHT22;61553;48.994;8.940;2023-11-22T08:10:09;2.80;99.90
32322;DHT22;61553;48.994;8.940;2023-11-22T08:12:36;2.80;99.90
32322;DHT22;61553;48.994;8.940;2023-11-22T08:15:04;2.90;99.90
32322;DHT22;61553;48.994;8.940;2023-11-22T08:17:30;3.00;99.90
32322;DHT22;61553;48.994;8.940;2023-11-22T08:19:58;3.70;99.90
32322;DHT22;61553;48.994;8.940;2023-11-22T08:22:25;3.00;99.90
32322;DHT22;61553;48.994;8.940;2023-11-22T08:24:54;3.00;99.90
32322;DHT22;61553;48.994;8.940;2023-11-22T08:27:22;3.10;99.90
32322;DHT22;61553;48.994;8.940;2023-11-22T08:29:48;3.10;99.90
32322;DHT22;61553;48.994;8.940;2023-11-22T08:32:14;3.20;99.90
32322;DHT22;61553;48.994;8.940;2023-11-22T08:34:39;3.20;99.90
32322;DHT22;61553;48.994;8.940;2023-11-22T08:37:06;3.30;99.90
32322;DHT22;61553;48.994;8.940;2023-11-22T08:39:32;3.40;99.90
32322;DHT22;61553;48.994;8.940;2023-11-22T08:41:58;3.70;99.90
32322;DHT22;61553;48.994;8.940;2023-11-22T08:44:23;3.60;99.90
32322;DHT22;61553;48.994;8.940;2023-11-22T08:46:49;3.90;99.90
32322;DHT22;61553;48.994;8.940;2023-11-22T08:49:15;4.10;99.90
32322;DHT22;61553;48.994;8.940;2023-11-22T08:51:41;4.10;99.90
32322;DHT22;61553;48.994;8.940;2023-11-22T08:54:08;4.30;99.90
32322;DHT22;61553;48.994;8.940;2023-11-22T08:56:33;4.40;99.90
32322;DHT22;61553;48.994;8.940;2023-11-22T08:59:00;4.60;99.90
32322;DHT22;61553;48.994;8.940;2023-11-22T09:01:26;4.80;99.90
32322;DHT22;61553;48.994;8.940;2023-11-22T09:03:51;4.80;99.90
32322;DHT22;61553;48.994;8.940;2023-11-22T09:06:17;5.00;99.90
32322;DHT22;61553;48.994;8.940;2023-11-22T09:08:44;5.50;99.90
32322;DHT22;61553;48.994;8.940;2023-11-22T09:11:11;7.10;99.90
32322;DHT22;61553;48.994;8.940;2023-11-22T09:13:37;9.20;97.50
32322;DHT22;61553;48.994;8.940;2023-11-22T09:16:03;11.60;86.80
32322;DHT22;61553;48.994;8.940;2023-11-22T09:18:30;12.60;80.90
32322;DHT22;61553;48.994;8.940;2023-11-22T09:20:56;12.90;72.50
32322;DHT22;61553;48.994;8.940;2023-11-22T09:23:21;13.70;73.00
32322;DHT22;61553;48.994;8.940;2023-11-22T09:25:47;14.50;67.40
32322;DHT22;61553;48.994;8.940;2023-11-22T09:28:13;15.30;64.70
32322;DHT22;61553;48.994;8.940;2023-11-22T09:30:41;15.20;61.50
32322;DHT22;61553;48.994;8.940;2023-11-22T09:33:13;13.20;63.20
32322;DHT22;61553;48.994;8.940;2023-11-22T09:35:43;11.70;65.70
32322;DHT22;61553;48.994;8.940;2023-11-22T09:38:10;10.30;71.30
32322;DHT22;61553;48.994;8.940;2023-11-22T09:40:45;9.30;73.70
32322;DHT22;61553;48.994;8.940;2023-11-22T09:43:12;8.60;75.80
32322;DHT22;61553;48.994;8.940;2023-11-22T09:45:40;7.80;80.50
32322;DHT22;61553;48.994;8.940;2023-11-22T09:48:14;8.50;82.00
32322;DHT22;61553;48.994;8.940;2023-11-22T09:53:26;11.80;71.60
32322;DHT22;61553;48.994;8.940;2023-11-22T09:55:54;10.90;71.70
32322;DHT22;61553;48.994;8.940;2023-11-22T09:58:21;10.00;72.80
32322;DHT22;61553;48.994;8.940;2023-11-22T10:00:47;9.60;74.50
32322;DHT22;61553;48.994;8.940;2023-11-22T10:03:13;8.80;77.20
32322;DHT22;61553;48.994;8.940;2023-11-22T10:05:43;8.60;78.80
32322;DHT22;61553;48.994;8.940;2023-11-22T10:08:08;8.10;81.00
32322;DHT22;61553;48.994;8.940;2023-11-22T10:10:36;8.20;80.20
32322;DHT22;61553;48.994;8.940;2023-11-22T10:13:02;8.50;81.10
32322;DHT22;61553;48.994;8.940;2023-11-22T10:15:29;8.90;79.70
32322;DHT22;61553;48.994;8.940;2023-11-22T10:17:59;8.90;78.60
32322;DHT22;61553;48.994;8.940;2023-11-22T10:20:37;8.50;80.60
32322;DHT22;61553;48.994;8.940;2023-11-22T10:23:03;8.20;80.20
32322;DHT22;61553;48.994;8.940;2023-11-22T10:25:29;7.80;81.60
32322;DHT22;61553;48.994;8.940;2023-11-22T10:27:57;7.60;82.50
32322;DHT22;61553;48.994;8.940;2023-11-22T10:30:23;7.80;82.60
32322;DHT22;61553;48.994;8.940;2023-11-22T10:32:50;7.80;81.80
32322;DHT22;61553;48.994;8.940;2023-11-22T10:35:18;8.00;82.40
32322;DHT22;61553;48.994;8.940;2023-11-22T10:37:47;7.90;83.40
32322;DHT22;61553;48.994;8.940;2023-11-22T10:40:13;7.90;83.20
32322;DHT22;61553;48.994;8.940;2023-11-22T10:42:41;8.10;81.30
32322;DHT22;61553;48.994;8.940;2023-11-22T10:45:08;7.80;84.30
32322;DHT22;61553;48.994;8.940;2023-11-22T10:47:38;7.70;84.60
32322;DHT22;61553;48.994;8.940;2023-11-22T10:50:08;7.60;84.20
32322;DHT22;61553;48.994;8.940;2023-11-22T10:52:36;7.50;84.90
32322;DHT22;61553;48.994;8.940;2023-11-22T10:55:03;7.50;84.80
32322;DHT22;61553;48.994;8.940;2023-11-22T10:57:36;7.50;83.80
32322;DHT22;61553;48.994;8.940;2023-11-22T11:00:04;7.30;87.80
32322;DHT22;61553;48.994;8.940;2023-11-22T11:02:41;7.20;85.50
32322;DHT22;61553;48.994;8.940;2023-11-22T11:05:15;7.10;88.00
32322;DHT22;61553;48.994;8.940;2023-11-22T11:07:51;7.00;89.70
32322;DHT22;61553;48.994;8.940;2023-11-22T11:10:20;6.70;90.70
32322;DHT22;61553;48.994;8.940;2023-11-22T11:12:47;6.80;90.60
32322;DHT22;61553;48.994;8.940;2023-11-22T11:15:14;6.70;90.10
32322;DHT22;61553;48.994;8.940;2023-11-22T11:17:43;6.80;91.20
32322;DHT22;61553;48.994;8.940;2023-11-22T11:20:10;6.80;90.80
32322;DHT22;61553;48.994;8.940;2023-11-22T11:22:39;6.70;90.10
32322;DHT22;61553;48.994;8.940;2023-11-22T11:25:05;6.50;91.00
32322;DHT22;61553;48.994;8.940;2023-11-22T11:27:35;6.50;90.50
32322;DHT22;61553;48.994;8.940;2023-11-22T11:30:43;6.50;90.30
32322;DHT22;61553;48.994;8.940;2023-11-22T11:33:16;6.40;91.40
32322;DHT22;61553;48.994;8.940;2023-11-22T11:35:47;6.50;91.90
32322;DHT22;61553;48.994;8.940;2023-11-22T11:38:15;6.40;90.90
32322;DHT22;61553;48.994;8.940;2023-11-22T11:40:42;6.20;91.40
32322;DHT22;61553;48.994;8.940;2023-11-22T11:43:10;6.20;91.40
32322;DHT22;61553;48.994;8.940;2023-11-22T11:45:37;6.00;91.80
32322;DHT22;61553;48.994;8.940;2023-11-22T11:48:08;6.10;92.40
32322;DHT22;61553;48.994;8.940;2023-11-22T11:50:34;6.00;92.30
32322;DHT22;61553;48.994;8.940;2023-11-22T11:52:59;6.70;91.90
32322;DHT22;61553;48.994;8.940;2023-11-22T11:55:26;6.10;92.50
32322;DHT22;61553;48.994;8.940;2023-11-22T11:57:55;6.20;92.60
32322;DHT22;61553;48.994;8.940;2023-11-22T12:00:22;6.40;92.10
32322;DHT22;61553;48.994;8.940;2023-11-22T12:02:50;6.40;91.60
32322;DHT22;61553;48.994;8.940;2023-11-22T12:05:18;6.40;91.50
32322;DHT22;61553;48.994;8.940;2023-11-22T12:07:44;6.60;91.10
32322;DHT22;61553;48.994;8.940;2023-11-22T12:10:09;6.60;91.20
32322;DHT22;61553;48.994;8.940;2023-11-22T12:12:35;6.50;91.50
32322;DHT22;61553;48.994;8.940;2023-11-22T12:15:01;6.30;91.60
32322;DHT22;61553;48.994;8.940;2023-11-22T12:17:27;6.20;92.30
32322;DHT22;61553;48.994;8.940;2023-11-22T12:19:53;6.30;92.80
32322;DHT22;61553;48.994;8.940;2023-11-22T12:22:20;6.30;91.90
32322;DHT22;61553;48.994;8.940;2023-11-22T12:24:46;6.40;91.90
32322;DHT22;61553;48.994;8.940;2023-11-22T12:27:12;6.10;92.20
32322;DHT22;61553;48.994;8.940;2023-11-22T12:29:37;6.00;92.90
32322;DHT22;61553;48.994;8.940;2023-11-22T12:32:03;6.10;93.30
32322;DHT22;61553;48.994;8.940;2023-11-22T12:34:29;6.20;93.00
32322;DHT22;61553;48.994;8.940;2023-11-22T12:36:56;6.80;92.80
32322;DHT22;61553;48.994;8.940;2023-11-22T12:39:22;6.00;92.70
32322;DHT22;61553;48.994;8.940;2023-11-22T12:41:52;6.00;93.20
32322;DHT22;61553;48.994;8.940;2023-11-22T12:44:18;5.80;93.90
32322;DHT22;61553;48.994;8.940;2023-11-22T12:46:51;5.60;94.40
32322;DHT22;61553;48.994;8.940;2023-11-22T12:49:46;5.70;95.00
32322;DHT22;61553;48.994;8.940;2023-11-22T12:52:11;5.70;94.60
32322;DHT22;61553;48.994;8.940;2023-11-22T12:54:37;6.10;94.80
32322;DHT22;61553;48.994;8.940;2023-11-22T12:57:10;5.50;94.20
32322;DHT22;61553;48.994;8.940;2023-11-22T12:59:37;5.40;94.80
32322;DHT22;61553;48.994;8.940;2023-11-22T13:02:02;5.40;94.90
32322;DHT22;61553;48.994;8.940;2023-11-22T13:04:28;5.30;94.80
32322;DHT22;61553;48.994;8.940;2023-11-22T13:06:55;5.40;94.70
32322;DHT22;61553;48.994;8.940;2023-11-22T13:09:20;5.50;95.20
32322;DHT22;61553;48.994;8.940;2023-11-22T13:11:46;5.50;95.20
32322;DHT22;61553;48.994;8.940;2023-11-22T13:14:12;5.60;95.10
32322;DHT22;61553;48.994;8.940;2023-11-22T13:16:41;5.60;95.20
32322;DHT22;61553;48.994;8.940;2023-11-22T13:19:08;5.60;95.10
32322;DHT22;61553;48.994;8.940;2023-11-22T13:21:34;5.70;95.10
32322;DHT22;61553;48.994;8.940;2023-11-22T13:24:00;5.70;95.00
32322;DHT22;61553;48.994;8.940;2023-11-22T13:26:26;5.40;95.00
32322;DHT22;61553;48.994;8.940;2023-11-22T13:28:52;5.40;95.30
32322;DHT22;61553;48.994;8.940;2023-11-22T13:31:20;5.30;95.60
32322;DHT22;61553;48.994;8.940;2023-11-22T13:33:47;5.30;95.80
32322;DHT22;61553;48.994;8.940;2023-11-22T13:36:13;5.20;95.10
32322;DHT22;61553;48.994;8.940;2023-11-22T13:38:40;5.00;95.40
32322;DHT22;61553;48.994;8.940;2023-11-22T13:41:05;5.10;95.80
32322;DHT22;61553;48.994;8.940;2023-11-22T13:43:31;5.20;95.90
32322;DHT22;61553;48.994;8.940;2023-11-22T13:45:58;5.10;96.00
32322;DHT22;61553;48.994;8.940;2023-11-22T13:48:25;5.20;96.70
32322;DHT22;61553;48.994;8.940;2023-11-22T13:50:52;5.20;96.80
32322;DHT22;61553;48.994;8.940;2023-11-22T13:53:17;5.30;96.60
32322;DHT22;61553;48.994;8.940;2023-11-22T13:55:47;5.30;96.20
32322;DHT22;61553;48.994;8.940;2023-11-22T13:58:13;5.30;96.30
32322;DHT22;61553;48.994;8.940;2023-11-22T14:00:39;5.40;95.80
32322;DHT22;61553;48.994;8.940;2023-11-22T14:03:05;5.30;95.10
32322;DHT22;61553;48.994;8.940;2023-11-22T14:05:36;5.10;95.10
32322;DHT22;61553;48.994;8.940;2023-11-22T14:08:04;5.00;95.90
32322;DHT22;61553;48.994;8.940;2023-11-22T14:10:30;5.00;95.90
32322;DHT22;61553;48.994;8.940;2023-11-22T14:12:55;5.00;96.50
32322;DHT22;61553;48.994;8.940;2023-11-22T14:15:26;4.90;95.80
32322;DHT22;61553;48.994;8.940;2023-11-22T14:17:53;4.80;96.20
32322;DHT22;61553;48.994;8.940;2023-11-22T14:20:19;4.90;96.60
32322;DHT22;61553;48.994;8.940;2023-11-22T14:22:46;4.80;95.10
32322;DHT22;61553;48.994;8.940;2023-11-22T14:25:12;4.70;96.10
32322;DHT22;61553;48.994;8.940;2023-11-22T14:27:42;4.80;96.20
32322;DHT22;61553;48.994;8.940;2023-11-22T14:30:09;4.80;95.90
32322;DHT22;61553;48.994;8.940;2023-11-22T14:32:36;4.80;96.00
32322;DHT22;61553;48.994;8.940;2023-11-22T14:35:03;4.70;95.20
32322;DHT22;61553;48.994;8.940;2023-11-22T14:37:28;4.70;95.40
32322;DHT22;61553;48.994;8.940;2023-11-22T14:39:55;4.80;95.40
32322;DHT22;61553;48.994;8.940;2023-11-22T14:42:21;4.80;94.40
32322;DHT22;61553;48.994;8.940;2023-11-22T14:44:47;4.70;94.30
32322;DHT22;61553;48.994;8.940;2023-11-22T14:47:12;4.70;94.50
32322;DHT22;61553;48.994;8.940;2023-11-22T14:49:41;4.70;95.20
32322;DHT22;61553;48.994;8.940;2023-11-22T14:52:07;4.70;95.30
32322;DHT22;61553;48.994;8.940;2023-11-22T14:54:36;4.70;94.90
32322;DHT22;61553;48.994;8.940;2023-11-22T14:57:02;4.60;95.20
32322;DHT22;61553;48.994;8.940;2023-11-22T14:59:28;4.60;95.40
32322;DHT22;61553;48.994;8.940;2023-11-22T15:01:57;4.60;95.80
32322;DHT22;61553;48.994;8.940;2023-11-22T15:04:26;4.40;96.10
32322;DHT22;61553;48.994;8.940;2023-11-22T15:06:51;4.30;96.50
32322;DHT22;61553;48.994;8.940;2023-11-22T15:09:17;4.30;96.90
32322;DHT22;61553;48.994;8.940;2023-11-22T15:11:43;4.40;96.90
32322;DHT22;61553;48.994;8.940;2023-11-22T15:14:09;4.30;97.20
32322;DHT22;61553;48.994;8.940;2023-11-22T15:16:35;4.30;96.90
32322;DHT22;61553;48.994;8.940;2023-11-22T15:19:04;4.20;97.20
32322;DHT22;61553;48.994;8.940;2023-11-22T15:21:32;4.20;97.30
32322;DHT22;61553;48.994;8.940;2023-11-22T15:23:57;4.10;97.40
32322;DHT22;61553;48.994;8.940;2023-11-22T15:26:24;4.10;97.10
32322;DHT22;61553;48.994;8.940;2023-11-22T15:28:49;4.10;97.10
32322;DHT22;61553;48.994;8.940;2023-11-22T15:31:16;4.00;97.40
32322;DHT22;61553;48.994;8.940;2023-11-22T15:33:41;4.00;98.50
32322;DHT22;61553;48.994;8.940;2023-11-22T15:36:08;4.00;98.60
32322;DHT22;61553;48.994;8.940;2023-11-22T15:38:33;4.00;98.80
32322;DHT22;61553;48.994;8.940;2023-11-22T15:41:01;3.90;98.30
32322;DHT22;61553;48.994;8.940;2023-11-22T15:43:28;3.90;98.50
32322;DHT22;61553;48.994;8.940;2023-11-22T15:45:57;3.90;98.80
32322;DHT22;61553;48.994;8.940;2023-11-22T15:48:24;3.80;98.70